Aviation Digital Data Service (ADDS)

Output produced by METARs form (1359 UTC 20 July 2019)
found at http://www.aviationweather.gov/metar/data/
 
METAR text: KADF 201356Z AUTO 23005KT FEW007 27/26 A3003 RMK AO2 SLP168 T02720256 PWINO $
Conditions at: KADF (ARKADELPHIA , AR, US) observed 1356 UTC 20 July 2019
Temperature: 27.2°C (81°F)
Dewpoint: 25.6°C (78°F) [RH = 91%]
Pressure (altimeter): 30.03 inches Hg (1017.0 mb)
[Sea-level pressure: 1016.8 mb]
Winds: from the SW (230 degrees) at 6 MPH (5 knots; 2.6 m/s)
Visibility: missing
Ceiling: at least 12,000 feet AGL
Clouds: few clouds at 700 feet AGL
Weather:
SOME DATA ABOVE MAY BE INACCURATE!!!
"$" is an indication the sensor requires maintenance

METAR text: KADF 201346Z AUTO 22004KT SCT007 27/26 A3003 RMK AO2 PWINO $
Conditions at: KADF (ARKADELPHIA , AR, US) observed 1346 UTC 20 July 2019
Temperature: 27.0°C (81°F)
Dewpoint: 26.0°C (79°F) [RH = 94%]
Pressure (altimeter): 30.03 inches Hg (1017.0 mb)
Winds: from the SW (220 degrees) at 5 MPH (4 knots; 2.1 m/s)
Visibility: missing
Ceiling: at least 12,000 feet AGL
Clouds: scattered clouds at 700 feet AGL
Weather:
SOME DATA ABOVE MAY BE INACCURATE!!!
"$" is an indication the sensor requires maintenance

Forecast for: KADF (ARKADELPHIA , AR, US)
Text: KADF 201130Z 2012/2112 VRB05KT P6SM FEW050
Forecast period: 1200 to 1500 UTC 20 July 2019
Forecast type: FROM: standard forecast or significant change
Winds: variable direction winds at 6 MPH (5 knots; 2.6 m/s)
Visibility: 6 or more miles 10+ km)
Ceiling: at least 12,000 feet AGL
Clouds: few clouds at 5000 feet AGL
Weather: no significant weather forecast for this period
Text: FM201500 20010KT P6SM SCT050
Forecast period: 1500 UTC 20 July 2019 to 0100 UTC 21 July 2019
Forecast type: FROM: standard forecast or significant change
Winds: from the SSW (200 degrees) at 12 MPH (10 knots; 5.1 m/s)
Visibility: 6 or more miles 10+ km)
Ceiling: at least 12,000 feet AGL
Clouds: scattered clouds at 5000 feet AGL
Weather: no significant weather forecast for this period
Text: FM210100 19005KT P6SM SCT250 AMD NOT SKED
Forecast period: 0100 to 1200 UTC 21 July 2019
Forecast type: FROM: standard forecast or significant change
Winds: from the S (190 degrees) at 6 MPH (5 knots; 2.6 m/s)
Visibility: 6 or more miles 10+ km)
Ceiling: at least 12,000 feet AGL
Clouds: scattered clouds at 25000 feet AGL
Weather: no significant weather forecast for this period